Beaver Creek, Canada
Current Conditions -  °F | °C
As of 3:53 AM on Thursday 27 Nov 2014 (Local Time) from PAOR Reporting Station
Broken Clouds Broken Clouds  
Wind Chill: -2°   Ceiling: 4500
Heat Index: -2°   Visibility: 10mi
Dew Point: -6°   Wind: 0mph
Humidity: 83%   Direction: NA
Pressure: 30.38"   Gusts: NA
Location:  62.36°N, 140.87°W
Report Text: PAOR 271153Z 00000KT 10SM BKN045 BKN050 M19/M21 A3038 RMK AO2 SLP352 4/007 T11891211 11189 21222 58007
Loading
Personal Weather Stations






























Interactive Weather Map New forecast layout! Learn more

10-Day Weather Forecast

Advertisements
Track Severe Weather on mobile